sensor_id;sensor_type;location;lat;lon;timestamp;P1;durP1;ratioP1;P2;durP2;ratioP2
48993;SDS011;34804;49.214;12.276;2022-09-24T00:01:34;7.63;;;4.45;;
48993;SDS011;34804;49.214;12.276;2022-09-24T00:04:03;7.85;;;4.72;;
48993;SDS011;34804;49.214;12.276;2022-09-24T00:06:36;8.23;;;4.82;;
48993;SDS011;34804;49.214;12.276;2022-09-24T00:09:08;7.50;;;4.78;;
48993;SDS011;34804;49.214;12.276;2022-09-24T00:11:36;9.13;;;4.82;;
48993;SDS011;34804;49.214;12.276;2022-09-24T00:14:04;7.22;;;4.88;;
48993;SDS011;34804;49.214;12.276;2022-09-24T00:16:33;8.70;;;4.68;;
48993;SDS011;34804;49.214;12.276;2022-09-24T00:19:01;9.80;;;4.60;;
48993;SDS011;34804;49.214;12.276;2022-09-24T00:21:30;8.00;;;4.88;;
48993;SDS011;34804;49.214;12.276;2022-09-24T00:24:08;7.25;;;4.28;;
48993;SDS011;34804;49.214;12.276;2022-09-24T00:26:58;9.35;;;4.28;;
48993;SDS011;34804;49.214;12.276;2022-09-24T00:29:25;9.23;;;4.47;;
48993;SDS011;34804;49.214;12.276;2022-09-24T00:31:52;9.52;;;4.90;;
48993;SDS011;34804;49.214;12.276;2022-09-24T00:34:19;8.00;;;4.70;;
48993;SDS011;34804;49.214;12.276;2022-09-24T00:36:47;8.32;;;5.03;;
48993;SDS011;34804;49.214;12.276;2022-09-24T00:39:14;8.68;;;4.97;;
48993;SDS011;34804;49.214;12.276;2022-09-24T00:41:41;8.20;;;5.00;;
48993;SDS011;34804;49.214;12.276;2022-09-24T00:53:00;9.10;;;5.15;;
48993;SDS011;34804;49.214;12.276;2022-09-24T00:55:34;8.98;;;4.13;;
48993;SDS011;34804;49.214;12.276;2022-09-24T00:58:03;9.57;;;4.25;;
48993;SDS011;34804;49.214;12.276;2022-09-24T01:00:32;7.82;;;4.88;;
48993;SDS011;34804;49.214;12.276;2022-09-24T01:03:04;10.02;;;4.57;;
48993;SDS011;34804;49.214;12.276;2022-09-24T01:05:36;11.55;;;5.00;;
48993;SDS011;34804;49.214;12.276;2022-09-24T01:08:09;7.75;;;4.40;;
48993;SDS011;34804;49.214;12.276;2022-09-24T01:15:59;7.88;;;5.10;;
48993;SDS011;34804;49.214;12.276;2022-09-24T01:18:38;8.85;;;5.07;;
48993;SDS011;34804;49.214;12.276;2022-09-24T01:21:23;9.00;;;5.22;;
48993;SDS011;34804;49.214;12.276;2022-09-24T01:26:47;9.20;;;4.88;;
48993;SDS011;34804;49.214;12.276;2022-09-24T01:29:27;9.27;;;4.78;;
48993;SDS011;34804;49.214;12.276;2022-09-24T01:32:03;10.30;;;4.97;;
48993;SDS011;34804;49.214;12.276;2022-09-24T01:35:03;8.95;;;4.45;;
48993;SDS011;34804;49.214;12.276;2022-09-24T01:37:42;7.85;;;4.65;;
48993;SDS011;34804;49.214;12.276;2022-09-24T01:40:13;8.48;;;4.78;;
48993;SDS011;34804;49.214;12.276;2022-09-24T01:42:43;8.40;;;4.70;;
48993;SDS011;34804;49.214;12.276;2022-09-24T01:45:11;10.50;;;5.68;;
48993;SDS011;34804;49.214;12.276;2022-09-24T01:47:40;10.98;;;5.38;;
48993;SDS011;34804;49.214;12.276;2022-09-24T01:50:08;10.10;;;5.07;;
48993;SDS011;34804;49.214;12.276;2022-09-24T01:52:40;10.27;;;4.82;;
48993;SDS011;34804;49.214;12.276;2022-09-24T01:55:21;11.10;;;5.00;;
48993;SDS011;34804;49.214;12.276;2022-09-24T01:57:53;7.45;;;4.65;;
48993;SDS011;34804;49.214;12.276;2022-09-24T02:00:25;8.80;;;4.97;;
48993;SDS011;34804;49.214;12.276;2022-09-24T02:02:56;11.05;;;4.32;;
48993;SDS011;34804;49.214;12.276;2022-09-24T02:05:57;7.88;;;4.80;;
48993;SDS011;34804;49.214;12.276;2022-09-24T02:08:31;8.20;;;5.07;;
48993;SDS011;34804;49.214;12.276;2022-09-24T02:11:20;8.85;;;5.22;;
48993;SDS011;34804;49.214;12.276;2022-09-24T02:16:19;13.00;;;5.63;;
48993;SDS011;34804;49.214;12.276;2022-09-24T02:18:51;9.40;;;5.65;;
48993;SDS011;34804;49.214;12.276;2022-09-24T02:21:22;8.95;;;5.60;;
48993;SDS011;34804;49.214;12.276;2022-09-24T02:23:52;9.65;;;5.60;;
48993;SDS011;34804;49.214;12.276;2022-09-24T02:26:23;11.50;;;5.90;;
48993;SDS011;34804;49.214;12.276;2022-09-24T02:28:51;8.68;;;5.55;;
48993;SDS011;34804;49.214;12.276;2022-09-24T02:31:26;11.52;;;7.00;;
48993;SDS011;34804;49.214;12.276;2022-09-24T02:34:05;12.20;;;7.07;;
48993;SDS011;34804;49.214;12.276;2022-09-24T02:36:51;11.55;;;6.43;;
48993;SDS011;34804;49.214;12.276;2022-09-24T02:41:48;8.48;;;5.30;;
48993;SDS011;34804;49.214;12.276;2022-09-24T02:44:16;8.80;;;5.40;;
48993;SDS011;34804;49.214;12.276;2022-09-24T02:46:45;10.10;;;5.57;;
48993;SDS011;34804;49.214;12.276;2022-09-24T02:49:12;9.63;;;5.63;;
48993;SDS011;34804;49.214;12.276;2022-09-24T02:51:41;11.15;;;5.30;;
48993;SDS011;34804;49.214;12.276;2022-09-24T02:54:09;9.15;;;5.60;;
48993;SDS011;34804;49.214;12.276;2022-09-24T02:56:36;8.40;;;5.18;;
48993;SDS011;34804;49.214;12.276;2022-09-24T02:59:03;9.55;;;4.60;;
48993;SDS011;34804;49.214;12.276;2022-09-24T03:01:31;9.23;;;5.07;;
48993;SDS011;34804;49.214;12.276;2022-09-24T03:03:59;7.47;;;4.57;;
48993;SDS011;34804;49.214;12.276;2022-09-24T03:06:26;11.20;;;4.85;;
48993;SDS011;34804;49.214;12.276;2022-09-24T03:08:55;7.65;;;4.72;;
48993;SDS011;34804;49.214;12.276;2022-09-24T03:11:22;10.63;;;5.40;;
48993;SDS011;34804;49.214;12.276;2022-09-24T03:13:49;12.82;;;6.20;;
48993;SDS011;34804;49.214;12.276;2022-09-24T03:16:18;9.63;;;6.55;;
48993;SDS011;34804;49.214;12.276;2022-09-24T03:18:45;11.82;;;6.30;;
48993;SDS011;34804;49.214;12.276;2022-09-24T03:21:13;11.43;;;6.55;;
48993;SDS011;34804;49.214;12.276;2022-09-24T03:23:42;10.48;;;6.53;;
48993;SDS011;34804;49.214;12.276;2022-09-24T03:26:09;10.25;;;6.70;;
48993;SDS011;34804;49.214;12.276;2022-09-24T03:28:35;11.05;;;6.95;;
48993;SDS011;34804;49.214;12.276;2022-09-24T03:31:03;11.15;;;7.20;;
48993;SDS011;34804;49.214;12.276;2022-09-24T03:33:31;13.30;;;7.60;;
48993;SDS011;34804;49.214;12.276;2022-09-24T03:38:41;12.70;;;6.18;;
48993;SDS011;34804;49.214;12.276;2022-09-24T03:41:10;11.40;;;6.68;;
48993;SDS011;34804;49.214;12.276;2022-09-24T03:43:37;11.25;;;7.10;;
48993;SDS011;34804;49.214;12.276;2022-09-24T03:46:04;10.35;;;7.03;;
48993;SDS011;34804;49.214;12.276;2022-09-24T03:48:35;10.85;;;7.20;;
48993;SDS011;34804;49.214;12.276;2022-09-24T03:51:07;11.75;;;7.38;;
48993;SDS011;34804;49.214;12.276;2022-09-24T03:56:03;10.68;;;7.18;;
48993;SDS011;34804;49.214;12.276;2022-09-24T03:58:31;12.30;;;6.85;;
48993;SDS011;34804;49.214;12.276;2022-09-24T04:01:01;10.75;;;6.93;;
48993;SDS011;34804;49.214;12.276;2022-09-24T04:03:28;11.45;;;7.18;;
48993;SDS011;34804;49.214;12.276;2022-09-24T04:05:54;10.18;;;6.97;;
48993;SDS011;34804;49.214;12.276;2022-09-24T04:08:21;12.63;;;7.50;;
48993;SDS011;34804;49.214;12.276;2022-09-24T04:10:49;12.70;;;7.07;;
48993;SDS011;34804;49.214;12.276;2022-09-24T04:13:16;12.98;;;7.65;;
48993;SDS011;34804;49.214;12.276;2022-09-24T04:15:44;12.50;;;7.07;;
48993;SDS011;34804;49.214;12.276;2022-09-24T04:18:10;11.93;;;7.15;;
48993;SDS011;34804;49.214;12.276;2022-09-24T04:20:37;11.00;;;7.35;;
48993;SDS011;34804;49.214;12.276;2022-09-24T04:23:04;14.35;;;6.88;;
48993;SDS011;34804;49.214;12.276;2022-09-24T04:25:31;11.90;;;6.70;;
48993;SDS011;34804;49.214;12.276;2022-09-24T04:27:59;11.48;;;6.47;;
48993;SDS011;34804;49.214;12.276;2022-09-24T04:30:28;11.18;;;6.85;;
48993;SDS011;34804;49.214;12.276;2022-09-24T04:32:56;10.43;;;6.22;;
48993;SDS011;34804;49.214;12.276;2022-09-24T04:35:26;9.38;;;6.47;;
48993;SDS011;34804;49.214;12.276;2022-09-24T04:37:55;11.23;;;6.78;;
48993;SDS011;34804;49.214;12.276;2022-09-24T04:40:22;12.27;;;6.85;;
48993;SDS011;34804;49.214;12.276;2022-09-24T04:42:49;10.93;;;6.57;;
48993;SDS011;34804;49.214;12.276;2022-09-24T04:45:16;10.27;;;5.72;;
48993;SDS011;34804;49.214;12.276;2022-09-24T04:47:47;8.50;;;5.97;;
48993;SDS011;34804;49.214;12.276;2022-09-24T04:50:23;20.13;;;14.07;;
48993;SDS011;34804;49.214;12.276;2022-09-24T04:52:54;11.70;;;8.23;;
48993;SDS011;34804;49.214;12.276;2022-09-24T04:55:22;15.98;;;8.32;;
48993;SDS011;34804;49.214;12.276;2022-09-24T04:57:49;12.85;;;6.65;;
48993;SDS011;34804;49.214;12.276;2022-09-24T05:00:17;11.10;;;5.95;;
48993;SDS011;34804;49.214;12.276;2022-09-24T05:02:46;8.20;;;5.55;;
48993;SDS011;34804;49.214;12.276;2022-09-24T05:05:20;14.15;;;6.13;;
48993;SDS011;34804;49.214;12.276;2022-09-24T05:07:47;8.73;;;5.65;;
48993;SDS011;34804;49.214;12.276;2022-09-24T05:10:14;14.18;;;6.68;;
48993;SDS011;34804;49.214;12.276;2022-09-24T05:12:41;10.55;;;6.05;;
48993;SDS011;34804;49.214;12.276;2022-09-24T05:15:08;9.82;;;5.47;;
48993;SDS011;34804;49.214;12.276;2022-09-24T05:17:38;11.38;;;5.00;;
48993;SDS011;34804;49.214;12.276;2022-09-24T05:20:05;10.65;;;5.20;;
48993;SDS011;34804;49.214;12.276;2022-09-24T05:22:33;9.35;;;5.72;;
48993;SDS011;34804;49.214;12.276;2022-09-24T05:25:01;11.45;;;5.18;;
48993;SDS011;34804;49.214;12.276;2022-09-24T05:27:29;10.50;;;5.03;;
48993;SDS011;34804;49.214;12.276;2022-09-24T05:29:56;8.68;;;5.07;;
48993;SDS011;34804;49.214;12.276;2022-09-24T05:32:22;10.38;;;5.63;;
48993;SDS011;34804;49.214;12.276;2022-09-24T05:34:49;11.88;;;5.95;;
48993;SDS011;34804;49.214;12.276;2022-09-24T05:37:17;8.40;;;5.53;;
48993;SDS011;34804;49.214;12.276;2022-09-24T05:39:44;9.60;;;5.30;;
48993;SDS011;34804;49.214;12.276;2022-09-24T05:42:11;10.00;;;5.55;;
48993;SDS011;34804;49.214;12.276;2022-09-24T05:44:41;9.32;;;5.43;;
48993;SDS011;34804;49.214;12.276;2022-09-24T05:47:13;12.50;;;6.30;;
48993;SDS011;34804;49.214;12.276;2022-09-24T05:49:40;9.07;;;5.82;;
48993;SDS011;34804;49.214;12.276;2022-09-24T05:52:08;11.45;;;6.03;;
48993;SDS011;34804;49.214;12.276;2022-09-24T05:54:35;8.68;;;5.50;;
48993;SDS011;34804;49.214;12.276;2022-09-24T05:57:01;9.30;;;5.70;;
48993;SDS011;34804;49.214;12.276;2022-09-24T05:59:28;9.27;;;5.88;;
48993;SDS011;34804;49.214;12.276;2022-09-24T06:01:55;11.55;;;6.18;;
48993;SDS011;34804;49.214;12.276;2022-09-24T06:04:22;10.40;;;6.15;;
48993;SDS011;34804;49.214;12.276;2022-09-24T06:06:49;10.38;;;6.60;;
48993;SDS011;34804;49.214;12.276;2022-09-24T06:09:16;13.80;;;7.05;;
48993;SDS011;34804;49.214;12.276;2022-09-24T06:11:42;9.38;;;6.88;;
48993;SDS011;34804;49.214;12.276;2022-09-24T06:14:09;11.35;;;6.70;;
48993;SDS011;34804;49.214;12.276;2022-09-24T06:16:37;12.48;;;5.72;;
48993;SDS011;34804;49.214;12.276;2022-09-24T06:19:03;12.50;;;6.50;;
48993;SDS011;34804;49.214;12.276;2022-09-24T06:21:30;9.73;;;6.43;;
48993;SDS011;34804;49.214;12.276;2022-09-24T06:23:57;12.93;;;6.63;;
48993;SDS011;34804;49.214;12.276;2022-09-24T06:26:24;11.30;;;5.43;;
48993;SDS011;34804;49.214;12.276;2022-09-24T06:28:51;11.20;;;5.65;;
48993;SDS011;34804;49.214;12.276;2022-09-24T06:31:18;8.05;;;5.47;;
48993;SDS011;34804;49.214;12.276;2022-09-24T06:33:45;8.73;;;5.07;;
48993;SDS011;34804;49.214;12.276;2022-09-24T06:36:12;9.73;;;5.68;;
48993;SDS011;34804;49.214;12.276;2022-09-24T06:38:39;9.32;;;5.40;;
48993;SDS011;34804;49.214;12.276;2022-09-24T06:41:06;9.88;;;5.75;;
48993;SDS011;34804;49.214;12.276;2022-09-24T06:43:33;10.18;;;5.28;;
48993;SDS011;34804;49.214;12.276;2022-09-24T06:46:00;10.98;;;6.32;;
48993;SDS011;34804;49.214;12.276;2022-09-24T06:48:28;10.98;;;6.53;;
48993;SDS011;34804;49.214;12.276;2022-09-24T06:50:56;9.80;;;6.35;;
48993;SDS011;34804;49.214;12.276;2022-09-24T06:53:23;10.90;;;6.38;;
48993;SDS011;34804;49.214;12.276;2022-09-24T06:55:50;12.48;;;7.07;;
48993;SDS011;34804;49.214;12.276;2022-09-24T06:58:18;10.52;;;6.70;;
48993;SDS011;34804;49.214;12.276;2022-09-24T07:00:56;8.73;;;6.60;;
48993;SDS011;34804;49.214;12.276;2022-09-24T07:03:25;11.52;;;6.55;;
48993;SDS011;34804;49.214;12.276;2022-09-24T07:05:53;10.30;;;5.80;;
48993;SDS011;34804;49.214;12.276;2022-09-24T07:08:20;10.55;;;6.35;;
48993;SDS011;34804;49.214;12.276;2022-09-24T07:10:47;10.57;;;6.80;;
48993;SDS011;34804;49.214;12.276;2022-09-24T07:13:15;9.68;;;6.18;;
48993;SDS011;34804;49.214;12.276;2022-09-24T07:15:42;13.15;;;6.15;;
48993;SDS011;34804;49.214;12.276;2022-09-24T07:18:10;9.48;;;6.57;;
48993;SDS011;34804;49.214;12.276;2022-09-24T07:20:37;10.70;;;6.50;;
48993;SDS011;34804;49.214;12.276;2022-09-24T07:23:05;9.30;;;6.32;;
48993;SDS011;34804;49.214;12.276;2022-09-24T07:25:33;9.98;;;6.70;;
48993;SDS011;34804;49.214;12.276;2022-09-24T07:28:11;8.93;;;6.15;;
48993;SDS011;34804;49.214;12.276;2022-09-24T07:30:39;10.55;;;6.10;;
48993;SDS011;34804;49.214;12.276;2022-09-24T07:33:06;10.77;;;6.28;;
48993;SDS011;34804;49.214;12.276;2022-09-24T07:35:36;13.70;;;6.38;;
48993;SDS011;34804;49.214;12.276;2022-09-24T07:38:05;10.52;;;6.53;;
48993;SDS011;34804;49.214;12.276;2022-09-24T07:40:35;8.77;;;5.97;;
48993;SDS011;34804;49.214;12.276;2022-09-24T07:43:01;10.68;;;6.35;;
48993;SDS011;34804;49.214;12.276;2022-09-24T07:45:28;8.98;;;5.90;;
48993;SDS011;34804;49.214;12.276;2022-09-24T07:48:00;9.55;;;5.93;;
48993;SDS011;34804;49.214;12.276;2022-09-24T07:50:29;11.30;;;6.00;;
48993;SDS011;34804;49.214;12.276;2022-09-24T07:52:56;11.50;;;6.35;;
48993;SDS011;34804;49.214;12.276;2022-09-24T07:55:23;10.52;;;5.93;;
48993;SDS011;34804;49.214;12.276;2022-09-24T07:57:54;8.10;;;5.82;;
48993;SDS011;34804;49.214;12.276;2022-09-24T08:00:22;10.52;;;5.80;;
48993;SDS011;34804;49.214;12.276;2022-09-24T08:02:50;11.05;;;5.05;;
48993;SDS011;34804;49.214;12.276;2022-09-24T08:05:19;7.82;;;5.38;;
48993;SDS011;34804;49.214;12.276;2022-09-24T08:07:55;9.95;;;5.35;;
48993;SDS011;34804;49.214;12.276;2022-09-24T08:10:23;8.10;;;5.00;;
48993;SDS011;34804;49.214;12.276;2022-09-24T08:12:52;7.68;;;4.80;;
48993;SDS011;34804;49.214;12.276;2022-09-24T08:15:19;8.40;;;4.95;;
48993;SDS011;34804;49.214;12.276;2022-09-24T08:17:47;7.63;;;4.90;;
48993;SDS011;34804;49.214;12.276;2022-09-24T08:20:14;7.43;;;5.10;;
48993;SDS011;34804;49.214;12.276;2022-09-24T08:22:41;8.70;;;4.63;;
48993;SDS011;34804;49.214;12.276;2022-09-24T08:25:08;8.73;;;5.20;;
48993;SDS011;34804;49.214;12.276;2022-09-24T08:27:35;8.30;;;5.30;;
48993;SDS011;34804;49.214;12.276;2022-09-24T08:30:03;7.13;;;4.93;;
48993;SDS011;34804;49.214;12.276;2022-09-24T08:32:31;10.65;;;4.95;;
48993;SDS011;34804;49.214;12.276;2022-09-24T08:34:57;9.38;;;5.05;;
48993;SDS011;34804;49.214;12.276;2022-09-24T08:37:26;10.50;;;5.10;;
48993;SDS011;34804;49.214;12.276;2022-09-24T08:39:53;8.75;;;5.47;;
48993;SDS011;34804;49.214;12.276;2022-09-24T08:42:24;10.88;;;5.50;;
48993;SDS011;34804;49.214;12.276;2022-09-24T08:45:01;8.48;;;5.10;;
48993;SDS011;34804;49.214;12.276;2022-09-24T08:47:57;10.95;;;5.90;;
48993;SDS011;34804;49.214;12.276;2022-09-24T08:50:32;8.77;;;5.03;;
48993;SDS011;34804;49.214;12.276;2022-09-24T08:55:57;9.80;;;5.63;;
48993;SDS011;34804;49.214;12.276;2022-09-24T09:06:31;7.40;;;5.00;;
48993;SDS011;34804;49.214;12.276;2022-09-24T09:09:20;7.88;;;5.53;;
48993;SDS011;34804;49.214;12.276;2022-09-24T09:11:51;11.27;;;6.25;;
48993;SDS011;34804;49.214;12.276;2022-09-24T09:17:18;8.27;;;5.60;;
48993;SDS011;34804;49.214;12.276;2022-09-24T09:20:05;8.02;;;5.57;;
48993;SDS011;34804;49.214;12.276;2022-09-24T09:22:38;11.40;;;5.63;;
48993;SDS011;34804;49.214;12.276;2022-09-24T09:25:13;10.63;;;5.57;;
48993;SDS011;34804;49.214;12.276;2022-09-24T09:27:40;9.43;;;5.80;;
48993;SDS011;34804;49.214;12.276;2022-09-24T09:30:11;9.57;;;5.93;;
48993;SDS011;34804;49.214;12.276;2022-09-24T09:35:45;8.70;;;6.30;;
48993;SDS011;34804;49.214;12.276;2022-09-24T09:43:36;13.60;;;4.60;;
48993;SDS011;34804;49.214;12.276;2022-09-24T09:46:11;8.95;;;5.30;;
48993;SDS011;34804;49.214;12.276;2022-09-24T09:48:49;10.70;;;5.03;;
48993;SDS011;34804;49.214;12.276;2022-09-24T09:51:20;7.88;;;5.25;;
48993;SDS011;34804;49.214;12.276;2022-09-24T09:53:56;7.28;;;5.05;;
48993;SDS011;34804;49.214;12.276;2022-09-24T09:56:26;6.97;;;4.70;;
48993;SDS011;34804;49.214;12.276;2022-09-24T09:59:14;9.10;;;5.10;;
48993;SDS011;34804;49.214;12.276;2022-09-24T10:01:48;10.25;;;5.25;;
48993;SDS011;34804;49.214;12.276;2022-09-24T10:04:23;10.13;;;5.00;;
48993;SDS011;34804;49.214;12.276;2022-09-24T10:07:08;7.97;;;5.03;;
48993;SDS011;34804;49.214;12.276;2022-09-24T10:09:41;8.93;;;4.80;;
48993;SDS011;34804;49.214;12.276;2022-09-24T10:14:43;8.00;;;4.57;;
48993;SDS011;34804;49.214;12.276;2022-09-24T10:17:13;8.65;;;4.82;;
48993;SDS011;34804;49.214;12.276;2022-09-24T10:22:19;8.60;;;5.15;;
48993;SDS011;34804;49.214;12.276;2022-09-24T10:24:49;10.38;;;4.40;;
48993;SDS011;34804;49.214;12.276;2022-09-24T10:27:31;8.02;;;4.93;;
48993;SDS011;34804;49.214;12.276;2022-09-24T10:30:01;7.53;;;4.50;;
48993;SDS011;34804;49.214;12.276;2022-09-24T10:32:59;6.22;;;4.03;;
48993;SDS011;34804;49.214;12.276;2022-09-24T10:35:29;7.93;;;4.63;;
48993;SDS011;34804;49.214;12.276;2022-09-24T10:38:01;10.43;;;4.90;;
48993;SDS011;34804;49.214;12.276;2022-09-24T10:40:39;7.63;;;5.05;;
48993;SDS011;34804;49.214;12.276;2022-09-24T10:43:13;6.35;;;4.18;;
48993;SDS011;34804;49.214;12.276;2022-09-24T10:56:42;7.95;;;4.10;;
48993;SDS011;34804;49.214;12.276;2022-09-24T10:59:28;6.78;;;4.28;;
48993;SDS011;34804;49.214;12.276;2022-09-24T11:02:24;7.85;;;4.80;;
48993;SDS011;34804;49.214;12.276;2022-09-24T11:05:20;5.55;;;3.90;;
48993;SDS011;34804;49.214;12.276;2022-09-24T11:10:38;8.90;;;4.97;;
48993;SDS011;34804;49.214;12.276;2022-09-24T11:13:16;7.10;;;4.70;;
48993;SDS011;34804;49.214;12.276;2022-09-24T11:16:15;8.68;;;4.45;;
48993;SDS011;34804;49.214;12.276;2022-09-24T11:19:07;7.03;;;4.20;;
48993;SDS011;34804;49.214;12.276;2022-09-24T11:22:21;12.10;;;4.32;;
48993;SDS011;34804;49.214;12.276;2022-09-24T11:25:07;8.35;;;4.40;;
48993;SDS011;34804;49.214;12.276;2022-09-24T11:30:48;7.13;;;3.80;;
48993;SDS011;34804;49.214;12.276;2022-09-24T11:33:30;6.53;;;3.97;;
48993;SDS011;34804;49.214;12.276;2022-09-24T11:36:35;7.25;;;4.03;;
48993;SDS011;34804;49.214;12.276;2022-09-24T12:01:27;8.70;;;5.63;;
48993;SDS011;34804;49.214;12.276;2022-09-24T12:04:00;11.25;;;5.97;;
48993;SDS011;34804;49.214;12.276;2022-09-24T12:06:35;12.38;;;5.47;;
48993;SDS011;34804;49.214;12.276;2022-09-24T12:09:15;7.80;;;5.38;;
48993;SDS011;34804;49.214;12.276;2022-09-24T12:11:52;8.93;;;5.97;;
48993;SDS011;34804;49.214;12.276;2022-09-24T12:14:38;8.18;;;5.50;;
48993;SDS011;34804;49.214;12.276;2022-09-24T12:17:27;8.38;;;6.13;;
48993;SDS011;34804;49.214;12.276;2022-09-24T12:22:55;10.07;;;6.55;;
48993;SDS011;34804;49.214;12.276;2022-09-24T12:27:57;12.15;;;7.25;;
48993;SDS011;34804;49.214;12.276;2022-09-24T12:30:27;10.43;;;7.10;;
48993;SDS011;34804;49.214;12.276;2022-09-24T12:34:33;12.23;;;7.32;;
48993;SDS011;34804;49.214;12.276;2022-09-24T12:36:56;12.02;;;7.93;;
48993;SDS011;34804;49.214;12.276;2022-09-24T12:39:27;10.27;;;7.15;;
48993;SDS011;34804;49.214;12.276;2022-09-24T12:42:10;11.18;;;7.03;;
48993;SDS011;34804;49.214;12.276;2022-09-24T12:47:10;8.95;;;6.40;;
48993;SDS011;34804;49.214;12.276;2022-09-24T12:49:46;10.30;;;7.28;;
48993;SDS011;34804;49.214;12.276;2022-09-24T12:52:23;13.10;;;7.75;;
48993;SDS011;34804;49.214;12.276;2022-09-24T12:54:58;10.50;;;7.40;;
48993;SDS011;34804;49.214;12.276;2022-09-24T12:57:34;9.55;;;6.70;;
48993;SDS011;34804;49.214;12.276;2022-09-24T13:03:01;11.20;;;7.63;;
48993;SDS011;34804;49.214;12.276;2022-09-24T13:05:33;11.43;;;7.53;;
48993;SDS011;34804;49.214;12.276;2022-09-24T13:10:58;10.63;;;7.28;;
48993;SDS011;34804;49.214;12.276;2022-09-24T13:13:32;14.15;;;8.30;;
48993;SDS011;34804;49.214;12.276;2022-09-24T13:18:33;13.32;;;9.02;;
48993;SDS011;34804;49.214;12.276;2022-09-24T13:21:02;12.07;;;7.93;;
48993;SDS011;34804;49.214;12.276;2022-09-24T13:23:32;11.10;;;8.10;;
48993;SDS011;34804;49.214;12.276;2022-09-24T13:26:11;12.68;;;8.60;;
48993;SDS011;34804;49.214;12.276;2022-09-24T13:29:03;14.13;;;9.02;;
48993;SDS011;34804;49.214;12.276;2022-09-24T13:31:47;12.00;;;9.05;;
48993;SDS011;34804;49.214;12.276;2022-09-24T13:34:27;12.50;;;9.25;;
48993;SDS011;34804;49.214;12.276;2022-09-24T13:37:02;11.93;;;8.40;;
48993;SDS011;34804;49.214;12.276;2022-09-24T13:42:16;13.95;;;9.38;;
48993;SDS011;34804;49.214;12.276;2022-09-24T13:44:54;15.55;;;10.60;;
48993;SDS011;34804;49.214;12.276;2022-09-24T13:47:36;16.55;;;10.75;;
48993;SDS011;34804;49.214;12.276;2022-09-24T13:53:05;17.17;;;11.13;;
48993;SDS011;34804;49.214;12.276;2022-09-24T13:55:43;16.30;;;11.40;;
48993;SDS011;34804;49.214;12.276;2022-09-24T13:58:25;15.27;;;11.75;;
48993;SDS011;34804;49.214;12.276;2022-09-24T14:00:53;16.38;;;11.60;;
48993;SDS011;34804;49.214;12.276;2022-09-24T14:03:25;15.75;;;11.82;;
48993;SDS011;34804;49.214;12.276;2022-09-24T14:05:55;14.82;;;11.55;;
48993;SDS011;34804;49.214;12.276;2022-09-24T14:08:24;16.80;;;12.10;;
48993;SDS011;34804;49.214;12.276;2022-09-24T14:11:04;14.40;;;11.82;;
48993;SDS011;34804;49.214;12.276;2022-09-24T14:13:34;14.57;;;10.82;;
48993;SDS011;34804;49.214;12.276;2022-09-24T14:16:16;13.52;;;11.10;;
48993;SDS011;34804;49.214;12.276;2022-09-24T14:18:45;14.23;;;11.00;;
48993;SDS011;34804;49.214;12.276;2022-09-24T14:21:18;13.32;;;10.35;;
48993;SDS011;34804;49.214;12.276;2022-09-24T14:23:57;14.68;;;10.88;;
48993;SDS011;34804;49.214;12.276;2022-09-24T14:26:30;15.27;;;11.45;;
48993;SDS011;34804;49.214;12.276;2022-09-24T14:29:14;13.68;;;11.15;;
48993;SDS011;34804;49.214;12.276;2022-09-24T14:31:45;17.42;;;10.77;;
48993;SDS011;34804;49.214;12.276;2022-09-24T14:34:29;16.08;;;11.02;;
48993;SDS011;34804;49.214;12.276;2022-09-24T14:36:58;17.30;;;12.15;;
48993;SDS011;34804;49.214;12.276;2022-09-24T14:39:36;15.10;;;10.63;;
48993;SDS011;34804;49.214;12.276;2022-09-24T14:42:11;14.45;;;10.98;;
48993;SDS011;34804;49.214;12.276;2022-09-24T14:44:46;15.25;;;11.65;;
48993;SDS011;34804;49.214;12.276;2022-09-24T14:47:23;16.83;;;11.98;;
48993;SDS011;34804;49.214;12.276;2022-09-24T14:49:51;16.35;;;12.85;;
48993;SDS011;34804;49.214;12.276;2022-09-24T14:52:24;16.10;;;12.07;;
48993;SDS011;34804;49.214;12.276;2022-09-24T14:55:13;17.92;;;12.65;;
48993;SDS011;34804;49.214;12.276;2022-09-24T14:57:43;17.73;;;11.75;;
48993;SDS011;34804;49.214;12.276;2022-09-24T15:00:22;15.70;;;11.93;;
48993;SDS011;34804;49.214;12.276;2022-09-24T15:03:02;15.57;;;12.45;;
48993;SDS011;34804;49.214;12.276;2022-09-24T15:05:38;15.32;;;11.88;;
48993;SDS011;34804;49.214;12.276;2022-09-24T15:08:11;15.25;;;11.70;;
48993;SDS011;34804;49.214;12.276;2022-09-24T15:10:51;18.48;;;12.07;;
48993;SDS011;34804;49.214;12.276;2022-09-24T15:13:28;16.13;;;13.10;;
48993;SDS011;34804;49.214;12.276;2022-09-24T15:16:16;15.07;;;12.05;;
48993;SDS011;34804;49.214;12.276;2022-09-24T15:18:48;19.92;;;14.05;;
48993;SDS011;34804;49.214;12.276;2022-09-24T15:21:24;23.88;;;14.60;;
48993;SDS011;34804;49.214;12.276;2022-09-24T15:23:55;19.10;;;14.07;;
48993;SDS011;34804;49.214;12.276;2022-09-24T15:26:23;18.88;;;12.88;;
48993;SDS011;34804;49.214;12.276;2022-09-24T15:28:57;18.40;;;12.93;;
48993;SDS011;34804;49.214;12.276;2022-09-24T15:31:25;20.88;;;14.55;;
48993;SDS011;34804;49.214;12.276;2022-09-24T15:33:52;20.60;;;15.32;;
48993;SDS011;34804;49.214;12.276;2022-09-24T15:36:20;19.65;;;15.05;;
48993;SDS011;34804;49.214;12.276;2022-09-24T15:38:47;15.88;;;13.02;;
48993;SDS011;34804;49.214;12.276;2022-09-24T15:41:16;20.92;;;15.40;;
48993;SDS011;34804;49.214;12.276;2022-09-24T15:43:44;20.88;;;14.52;;
48993;SDS011;34804;49.214;12.276;2022-09-24T15:46:11;18.45;;;14.50;;
48993;SDS011;34804;49.214;12.276;2022-09-24T15:48:38;19.58;;;15.45;;
48993;SDS011;34804;49.214;12.276;2022-09-24T15:51:05;21.05;;;16.40;;
48993;SDS011;34804;49.214;12.276;2022-09-24T15:53:40;22.63;;;16.77;;
48993;SDS011;34804;49.214;12.276;2022-09-24T15:56:07;18.92;;;15.40;;
48993;SDS011;34804;49.214;12.276;2022-09-24T15:58:34;21.08;;;15.63;;
48993;SDS011;34804;49.214;12.276;2022-09-24T16:01:01;18.52;;;15.00;;
48993;SDS011;34804;49.214;12.276;2022-09-24T16:03:29;21.95;;;16.55;;
48993;SDS011;34804;49.214;12.276;2022-09-24T16:05:57;22.17;;;16.70;;
48993;SDS011;34804;49.214;12.276;2022-09-24T16:08:25;21.73;;;16.73;;
48993;SDS011;34804;49.214;12.276;2022-09-24T16:10:52;22.95;;;16.88;;
48993;SDS011;34804;49.214;12.276;2022-09-24T16:13:19;20.95;;;16.02;;
48993;SDS011;34804;49.214;12.276;2022-09-24T16:15:48;24.33;;;17.67;;
48993;SDS011;34804;49.214;12.276;2022-09-24T16:18:15;20.75;;;16.48;;
48993;SDS011;34804;49.214;12.276;2022-09-24T16:20:47;22.08;;;17.55;;
48993;SDS011;34804;49.214;12.276;2022-09-24T16:23:15;20.02;;;16.80;;
48993;SDS011;34804;49.214;12.276;2022-09-24T16:25:56;23.73;;;17.33;;
48993;SDS011;34804;49.214;12.276;2022-09-24T16:28:25;23.33;;;19.10;;
48993;SDS011;34804;49.214;12.276;2022-09-24T16:30:52;21.85;;;17.60;;
48993;SDS011;34804;49.214;12.276;2022-09-24T16:33:19;22.83;;;17.00;;
48993;SDS011;34804;49.214;12.276;2022-09-24T16:35:46;23.52;;;17.00;;
48993;SDS011;34804;49.214;12.276;2022-09-24T16:38:13;23.75;;;17.23;;
48993;SDS011;34804;49.214;12.276;2022-09-24T16:40:47;21.38;;;17.25;;
48993;SDS011;34804;49.214;12.276;2022-09-24T16:43:14;22.38;;;18.00;;
48993;SDS011;34804;49.214;12.276;2022-09-24T16:45:42;25.63;;;18.92;;
48993;SDS011;34804;49.214;12.276;2022-09-24T16:48:10;24.17;;;18.48;;